Time;durP1;ratioP1;P1;durP2;ratioP2;P2;SDS_P1;SDS_P2;PMS_P1;PMS_P2;Temp;Humidity;BMP_temperature;BMP_pressure;BME280_temperature;BME280_humidity;BME280_pressure;Samples;Min_cycle;Max_cycle;Signal;HPM_P1;HPM_P2
2023/04/21 00:01:07;;;;;;;30.77;19.42;;;;;;;;;;5071076;28;20059;-80
2023/04/21 00:03:37;;;;;;;31.98;18.80;;;;;;;;;;5073661;28;20159;-80
2023/04/21 00:06:05;;;;;;;31.67;19.88;;;;;;;;;;5056867;28;20094;-80
2023/04/21 00:08:31;;;;;;;33.03;19.67;;;;;;;;;;5040743;28;20546;-80
2023/04/21 00:10:57;;;;;;;32.15;19.13;;;;;;;;;;5074709;28;20111;-80
2023/04/21 00:13:24;;;;;;;29.83;19.98;;;;;;;;;;5073988;28;20041;-80
2023/04/21 00:15:50;;;;;;;28.85;18.75;;;;;;;;;;5056996;28;20101;-80
2023/04/21 00:18:16;;;;;;;30.80;20.27;;;;;;;;;;5073097;28;20068;-80
2023/04/21 00:20:43;;;;;;;32.10;20.38;;;;;;;;;;5073417;28;20190;-80
2023/04/21 00:23:10;;;;;;;30.70;19.25;;;;;;;;;;5073903;28;20067;-80
2023/04/21 00:25:36;;;;;;;34.58;20.17;;;;;;;;;;5073539;28;20439;-80
2023/04/21 00:28:02;;;;;;;30.60;19.65;;;;;;;;;;5074272;28;20036;-80
2023/04/21 00:30:28;;;;;;;31.27;18.70;;;;;;;;;;5072037;28;20079;-80
2023/04/21 00:32:54;;;;;;;31.13;18.80;;;;;;;;;;5073260;28;20041;-80
2023/04/21 00:35:20;;;;;;;27.77;18.08;;;;;;;;;;5056004;28;20098;-80
2023/04/21 00:37:48;;;;;;;30.73;18.75;;;;;;;;;;5073234;28;20481;-80
2023/04/21 00:40:15;;;;;;;31.73;17.85;;;;;;;;;;5072719;28;20086;-80
2023/04/21 00:42:41;;;;;;;29.42;17.08;;;;;;;;;;5073206;28;20362;-80
2023/04/21 00:45:07;;;;;;;34.72;18.33;;;;;;;;;;5072870;28;20539;-80
2023/04/21 00:47:34;;;;;;;31.63;17.60;;;;;;;;;;5073932;28;20071;-80
2023/04/21 00:50:00;;;;;;;27.52;17.88;;;;;;;;;;5073281;28;20052;-80
2023/04/21 00:52:26;;;;;;;22.30;13.40;;;;;;;;;;5072693;28;20049;-80
2023/04/21 00:54:52;;;;;;;26.83;17.20;;;;;;;;;;5072869;28;20040;-80
2023/04/21 00:57:20;;;;;;;29.85;15.85;;;;;;;;;;5072147;28;20044;-80
2023/04/21 00:59:46;;;;;;;28.77;16.88;;;;;;;;;;5072925;28;20106;-80
2023/04/21 01:02:14;;;;;;;26.80;16.23;;;;;;;;;;5070341;28;20040;-80
2023/04/21 01:04:40;;;;;;;28.60;16.02;;;;;;;;;;5073863;28;20083;-80
2023/04/21 01:07:07;;;;;;;27.00;16.77;;;;;;;;;;5074014;28;20048;-80
2023/04/21 01:09:34;;;;;;;26.10;15.60;;;;;;;;;;5073351;28;20048;-80
2023/04/21 01:12:04;;;;;;;27.63;16.02;;;;;;;;;;5074072;28;20090;-80
2023/04/21 01:14:30;;;;;;;24.23;15.23;;;;;;;;;;5072035;28;20106;-80
2023/04/21 01:16:56;;;;;;;25.88;15.75;;;;;;;;;;5055924;28;20047;-79
2023/04/21 01:19:23;;;;;;;27.92;15.23;;;;;;;;;;5072170;28;20059;-80
2023/04/21 01:21:56;;;;;;;25.52;15.52;;;;;;;;;;5066503;28;20037;-80
2023/04/21 01:24:23;;;;;;;24.15;14.77;;;;;;;;;;5065696;28;20115;-80
2023/04/21 01:26:49;;;;;;;27.80;15.48;;;;;;;;;;5072339;28;20089;-80
2023/04/21 01:29:16;;;;;;;27.33;14.73;;;;;;;;;;5073694;28;20098;-80
2023/04/21 01:31:42;;;;;;;28.52;15.57;;;;;;;;;;5073232;28;20485;-80
2023/04/21 01:34:09;;;;;;;23.85;15.07;;;;;;;;;;5073410;28;20067;-80
2023/04/21 01:36:36;;;;;;;26.42;15.30;;;;;;;;;;5071434;28;20055;-80
2023/04/21 01:39:03;;;;;;;25.90;15.02;;;;;;;;;;5072100;28;20048;-80
2023/04/21 01:41:29;;;;;;;22.65;11.00;;;;;;;;;;5071283;28;20103;-80
2023/04/21 01:43:55;;;;;;;26.42;15.30;;;;;;;;;;5073225;28;20493;-80
2023/04/21 01:46:21;;;;;;;25.50;14.98;;;;;;;;;;5072583;28;20041;-80
2023/04/21 01:48:47;;;;;;;23.75;14.98;;;;;;;;;;5072970;28;20050;-80
2023/04/21 01:51:13;;;;;;;26.20;15.35;;;;;;;;;;5071658;28;20465;-80
2023/04/21 01:53:39;;;;;;;25.42;15.05;;;;;;;;;;5071666;28;20512;-80
2023/04/21 01:56:05;;;;;;;24.85;15.27;;;;;;;;;;5072840;28;20115;-80
2023/04/21 01:58:31;;;;;;;21.70;13.85;;;;;;;;;;5072469;28;20118;-80
2023/04/21 02:00:57;;;;;;;22.40;14.85;;;;;;;;;;5065965;28;20626;-80
2023/04/21 02:03:23;;;;;;;25.75;15.13;;;;;;;;;;5050234;28;20084;-80
2023/04/21 02:05:50;;;;;;;25.33;14.50;;;;;;;;;;5048784;28;20036;-80
2023/04/21 02:08:16;;;;;;;24.33;14.95;;;;;;;;;;5051186;28;20052;-80
2023/04/21 02:10:42;;;;;;;22.45;14.55;;;;;;;;;;5050982;28;20048;-80
2023/04/21 02:13:08;;;;;;;24.27;14.52;;;;;;;;;;5051487;28;20055;-80
2023/04/21 02:15:36;;;;;;;24.98;14.68;;;;;;;;;;5051111;28;20091;-80
2023/04/21 02:18:02;;;;;;;23.98;14.80;;;;;;;;;;5052443;28;20269;-80
2023/04/21 02:20:28;;;;;;;21.77;14.75;;;;;;;;;;5051397;28;20536;-80
2023/04/21 02:22:54;;;;;;;24.30;14.18;;;;;;;;;;5051194;28;20498;-79
2023/04/21 02:25:20;;;;;;;28.67;14.75;;;;;;;;;;5034689;28;20048;-80
2023/04/21 02:27:47;;;;;;;24.55;14.18;;;;;;;;;;5051079;28;20059;-80
2023/04/21 02:30:13;;;;;;;25.33;14.40;;;;;;;;;;5051558;28;20044;-80
2023/04/21 02:32:39;;;;;;;23.55;13.75;;;;;;;;;;5052478;28;20037;-80
2023/04/21 02:35:05;;;;;;;23.38;14.73;;;;;;;;;;5035068;28;20072;-80
2023/04/21 02:37:31;;;;;;;25.70;14.10;;;;;;;;;;5052265;28;20044;-80
2023/04/21 02:39:57;;;;;;;22.05;14.02;;;;;;;;;;5051944;28;20073;-80
2023/04/21 02:42:23;;;;;;;22.08;14.57;;;;;;;;;;5051497;28;20045;-80
2023/04/21 02:44:49;;;;;;;24.65;13.88;;;;;;;;;;5051402;28;20167;-80
2023/04/21 02:47:15;;;;;;;22.55;14.00;;;;;;;;;;5052325;28;20120;-80
2023/04/21 02:49:42;;;;;;;24.10;13.25;;;;;;;;;;5051014;28;20049;-80
2023/04/21 02:52:08;;;;;;;24.73;13.00;;;;;;;;;;5054680;28;20056;-80
2023/04/21 02:54:34;;;;;;;25.23;12.65;;;;;;;;;;5057376;28;20044;-80
2023/04/21 02:57:00;;;;;;;26.77;13.40;;;;;;;;;;5057981;28;20047;-80
2023/04/21 02:59:27;;;;;;;20.60;12.85;;;;;;;;;;5058944;28;20044;-80
2023/04/21 03:01:53;;;;;;;23.67;13.82;;;;;;;;;;5058574;28;20460;-80
2023/04/21 03:04:19;;;;;;;23.88;12.90;;;;;;;;;;5058508;28;20045;-80
2023/04/21 03:06:45;;;;;;;21.15;13.27;;;;;;;;;;5020850;28;20113;-80
2023/04/21 03:09:11;;;;;;;22.63;13.35;;;;;;;;;;5066803;28;20049;-80
2023/04/21 03:11:37;;;;;;;18.20;12.95;;;;;;;;;;5057217;28;20033;-80
2023/04/21 03:14:03;;;;;;;21.67;13.13;;;;;;;;;;5057463;28;20044;-80
2023/04/21 03:16:29;;;;;;;26.90;13.48;;;;;;;;;;5057320;28;20095;-80
2023/04/21 03:18:55;;;;;;;24.40;12.88;;;;;;;;;;5058377;28;20040;-80
2023/04/21 03:21:21;;;;;;;24.48;13.13;;;;;;;;;;5057277;28;20044;-80
2023/04/21 03:23:47;;;;;;;23.75;13.13;;;;;;;;;;5056644;28;20053;-80
2023/04/21 03:26:13;;;;;;;22.88;12.40;;;;;;;;;;5057418;28;20049;-80
2023/04/21 03:28:40;;;;;;;21.10;12.23;;;;;;;;;;5057150;28;20041;-80
2023/04/21 03:31:06;;;;;;;24.88;13.25;;;;;;;;;;5057112;28;20049;-80
2023/04/21 03:33:32;;;;;;;22.05;12.30;;;;;;;;;;5056641;28;20045;-80
2023/04/21 03:35:58;;;;;;;26.27;13.25;;;;;;;;;;5057097;28;20056;-80
2023/04/21 03:38:24;;;;;;;26.67;9.55;;;;;;;;;;5057445;28;20131;-80
2023/04/21 03:40:50;;;;;;;22.50;12.65;;;;;;;;;;5057102;28;20047;-80
2023/04/21 03:43:16;;;;;;;17.90;9.48;;;;;;;;;;5058310;28;20045;-80
2023/04/21 03:45:42;;;;;;;19.40;12.43;;;;;;;;;;5073600;28;20127;-80
2023/04/21 03:48:08;;;;;;;19.70;10.98;;;;;;;;;;5057932;28;20041;-80
2023/04/21 03:50:34;;;;;;;23.00;11.98;;;;;;;;;;5056779;28;20098;-80
2023/04/21 03:53:00;;;;;;;22.13;11.23;;;;;;;;;;5058481;28;20391;-80
2023/04/21 03:55:26;;;;;;;21.80;12.48;;;;;;;;;;5057181;28;20490;-80
2023/04/21 03:57:52;;;;;;;22.63;11.60;;;;;;;;;;5056597;28;20047;-80
2023/04/21 04:00:19;;;;;;;21.25;12.02;;;;;;;;;;5057987;28;20119;-80
2023/04/21 04:02:46;;;;;;;22.30;12.63;;;;;;;;;;5048185;28;20074;-80
2023/04/21 04:05:12;;;;;;;17.98;11.93;;;;;;;;;;5052381;28;20087;-80
2023/04/21 04:07:38;;;;;;;18.27;10.68;;;;;;;;;;5065803;28;20421;-80
2023/04/21 04:10:04;;;;;;;20.55;11.07;;;;;;;;;;5053472;28;20037;-80
2023/04/21 04:12:30;;;;;;;22.17;11.27;;;;;;;;;;5052151;28;20041;-80
2023/04/21 04:14:56;;;;;;;19.25;11.70;;;;;;;;;;5054408;28;20537;-80
2023/04/21 04:17:22;;;;;;;23.27;9.15;;;;;;;;;;5054593;28;20386;-80
2023/04/21 04:19:48;;;;;;;20.02;10.35;;;;;;;;;;5052879;28;20052;-80
2023/04/21 04:22:15;;;;;;;23.40;12.48;;;;;;;;;;5053280;28;20037;-79
2023/04/21 04:24:43;;;;;;;19.02;12.07;;;;;;;;;;5052789;28;20056;-80
2023/04/21 04:27:12;;;;;;;27.38;12.02;;;;;;;;;;5054599;28;20040;-80
2023/04/21 04:29:39;;;;;;;23.20;12.32;;;;;;;;;;5054282;28;20108;-80
2023/04/21 04:32:08;;;;;;;20.58;11.82;;;;;;;;;;5054707;28;20107;-80
2023/04/21 04:34:36;;;;;;;20.10;12.27;;;;;;;;;;5054413;28;20185;-80
2023/04/21 04:37:03;;;;;;;22.38;11.38;;;;;;;;;;5052842;28;20037;-80
2023/04/21 04:39:30;;;;;;;21.50;12.23;;;;;;;;;;5053179;28;20095;-80
2023/04/21 04:41:56;;;;;;;20.33;12.18;;;;;;;;;;5054187;28;20033;-80
2023/04/21 04:44:24;;;;;;;17.65;10.55;;;;;;;;;;5054025;28;20044;-80
2023/04/21 04:46:51;;;;;;;17.77;7.40;;;;;;;;;;5053608;28;20098;-80
2023/04/21 04:49:17;;;;;;;19.58;11.23;;;;;;;;;;5053943;28;20041;-80
2023/04/21 04:51:43;;;;;;;21.63;12.38;;;;;;;;;;5052389;28;20045;-80
2023/04/21 04:54:09;;;;;;;18.05;11.80;;;;;;;;;;5054221;28;20068;-80
2023/04/21 04:56:36;;;;;;;22.30;12.30;;;;;;;;;;5052766;28;20051;-80
2023/04/21 04:59:02;;;;;;;21.08;11.73;;;;;;;;;;5052179;28;20265;-80
2023/04/21 05:01:31;;;;;;;20.42;11.88;;;;;;;;;;5044384;28;20437;-80
2023/04/21 05:03:57;;;;;;;17.45;11.32;;;;;;;;;;5051739;28;20485;-80
2023/04/21 05:06:24;;;;;;;19.17;11.18;;;;;;;;;;5053473;28;20040;-80
2023/04/21 05:08:50;;;;;;;15.95;9.93;;;;;;;;;;5035831;28;20036;-81
2023/04/21 05:11:16;;;;;;;18.00;10.85;;;;;;;;;;5052911;28;20072;-81
2023/04/21 05:13:42;;;;;;;19.67;11.43;;;;;;;;;;5053928;28;20103;-80
2023/04/21 05:16:09;;;;;;;22.75;11.18;;;;;;;;;;5051802;28;20048;-80
2023/04/21 05:18:35;;;;;;;16.58;7.78;;;;;;;;;;5053845;28;20397;-80
2023/04/21 05:21:01;;;;;;;17.52;11.52;;;;;;;;;;5053089;28;20041;-80
2023/04/21 05:23:27;;;;;;;20.00;10.63;;;;;;;;;;5052242;28;20087;-81
2023/04/21 05:25:53;;;;;;;18.98;10.65;;;;;;;;;;5053025;28;20057;-81
2023/04/21 05:28:19;;;;;;;19.73;11.95;;;;;;;;;;5052197;28;20073;-80
2023/04/21 05:30:45;;;;;;;19.67;11.30;;;;;;;;;;5051859;28;20135;-81
2023/04/21 05:33:11;;;;;;;16.42;10.73;;;;;;;;;;5053378;28;20044;-81
2023/04/21 05:35:37;;;;;;;22.55;11.55;;;;;;;;;;5053266;28;20401;-81
2023/04/21 05:38:03;;;;;;;19.45;10.48;;;;;;;;;;5051401;28;20112;-81
2023/04/21 05:40:29;;;;;;;21.80;10.75;;;;;;;;;;5051842;28;20074;-81
2023/04/21 05:42:55;;;;;;;15.55;11.02;;;;;;;;;;5051386;28;20041;-81
2023/04/21 05:45:21;;;;;;;14.35;8.95;;;;;;;;;;5052921;28;20048;-81
2023/04/21 05:47:48;;;;;;;16.90;11.02;;;;;;;;;;5051979;28;20037;-81
2023/04/21 05:50:15;;;;;;;14.75;7.78;;;;;;;;;;5052648;28;20048;-81
2023/04/21 05:52:41;;;;;;;18.35;10.18;;;;;;;;;;5053005;28;20059;-81
2023/04/21 05:55:07;;;;;;;18.13;10.48;;;;;;;;;;5052463;28;20110;-81
2023/04/21 05:57:33;;;;;;;21.83;10.55;;;;;;;;;;5052691;28;20057;-81
2023/04/21 05:59:59;;;;;;;16.40;10.40;;;;;;;;;;5052102;28;20494;-81
2023/04/21 06:02:25;;;;;;;15.82;10.20;;;;;;;;;;5043407;28;20098;-81
2023/04/21 06:04:52;;;;;;;19.05;10.02;;;;;;;;;;5051013;28;20047;-81
2023/04/21 06:07:18;;;;;;;17.17;10.93;;;;;;;;;;5051122;28;20084;-81
2023/04/21 06:09:44;;;;;;;15.65;10.38;;;;;;;;;;5052638;28;20043;-81
2023/04/21 06:12:10;;;;;;;19.63;10.57;;;;;;;;;;5052553;28;20041;-80
2023/04/21 06:14:36;;;;;;;18.27;10.43;;;;;;;;;;5051206;28;20504;-81
2023/04/21 06:17:02;;;;;;;15.38;9.82;;;;;;;;;;5014824;28;20516;-81
2023/04/21 06:19:28;;;;;;;14.73;9.80;;;;;;;;;;5048864;28;20601;-81
2023/04/21 06:21:56;;;;;;;17.08;10.50;;;;;;;;;;5050652;28;20409;-80
2023/04/21 06:24:24;;;;;;;17.90;10.27;;;;;;;;;;5050641;28;20052;-81
2023/04/21 06:26:51;;;;;;;17.23;10.65;;;;;;;;;;5050171;28;20041;-81
2023/04/21 06:29:18;;;;;;;20.70;8.95;;;;;;;;;;5034252;28;20044;-80
2023/04/21 06:31:44;;;;;;;17.20;11.20;;;;;;;;;;5051096;28;20084;-80
2023/04/21 06:34:10;;;;;;;15.95;10.10;;;;;;;;;;5050940;28;20049;-80
2023/04/21 06:36:36;;;;;;;18.55;10.60;;;;;;;;;;5050578;28;20043;-80
2023/04/21 06:39:03;;;;;;;18.70;10.45;;;;;;;;;;5050812;28;20040;-80
2023/04/21 06:41:30;;;;;;;12.13;7.03;;;;;;;;;;5034334;28;20056;-80
2023/04/21 06:43:56;;;;;;;17.67;9.32;;;;;;;;;;5051893;28;20045;-80
2023/04/21 06:46:22;;;;;;;21.40;11.15;;;;;;;;;;5052061;28;20465;-80
2023/04/21 06:48:48;;;;;;;16.17;9.43;;;;;;;;;;5051138;28;20044;-80
2023/04/21 06:51:14;;;;;;;17.08;10.60;;;;;;;;;;5034098;28;20046;-80
2023/04/21 06:53:40;;;;;;;18.70;10.80;;;;;;;;;;5051813;28;20525;-80
2023/04/21 06:56:06;;;;;;;17.30;10.32;;;;;;;;;;5050315;28;20041;-80
2023/04/21 06:58:32;;;;;;;20.10;9.13;;;;;;;;;;5051988;28;20044;-80
2023/04/21 07:00:58;;;;;;;14.98;8.45;;;;;;;;;;5045656;28;20040;-80
2023/04/21 07:03:24;;;;;;;14.80;8.95;;;;;;;;;;5046810;28;20115;-80
2023/04/21 07:05:50;;;;;;;15.63;8.88;;;;;;;;;;5050525;28;20037;-80
2023/04/21 07:08:16;;;;;;;17.00;10.70;;;;;;;;;;5050058;28;20033;-80
2023/04/21 07:10:42;;;;;;;16.48;10.60;;;;;;;;;;5033960;28;20068;-80
2023/04/21 07:13:08;;;;;;;16.35;9.80;;;;;;;;;;5050099;28;20106;-81
2023/04/21 07:15:34;;;;;;;15.80;9.23;;;;;;;;;;5067157;28;20040;-80
2023/04/21 07:18:01;;;;;;;16.48;10.55;;;;;;;;;;5051161;28;20055;-80
2023/04/21 07:20:27;;;;;;;18.17;10.05;;;;;;;;;;5051843;28;20444;-80
2023/04/21 07:22:53;;;;;;;18.83;10.13;;;;;;;;;;5050089;28;20060;-80
2023/04/21 07:25:19;;;;;;;18.33;10.32;;;;;;;;;;5051339;28;20517;-80
2023/04/21 07:27:45;;;;;;;19.73;10.38;;;;;;;;;;5033983;28;20045;-81
2023/04/21 07:30:11;;;;;;;18.02;9.75;;;;;;;;;;5050052;28;20045;-80
2023/04/21 07:32:37;;;;;;;17.75;9.85;;;;;;;;;;5050725;28;20521;-80
2023/04/21 07:35:04;;;;;;;17.25;9.70;;;;;;;;;;5051102;28;20041;-81
2023/04/21 07:37:31;;;;;;;19.35;11.50;;;;;;;;;;5051499;28;20090;-81
2023/04/21 07:39:57;;;;;;;16.73;10.70;;;;;;;;;;5053678;28;20048;-80
2023/04/21 07:42:24;;;;;;;14.25;7.97;;;;;;;;;;5053968;28;20437;-81
2023/04/21 07:44:50;;;;;;;17.98;10.95;;;;;;;;;;5037352;28;20041;-81
2023/04/21 07:47:16;;;;;;;16.85;10.75;;;;;;;;;;5054985;28;20041;-80
2023/04/21 07:49:42;;;;;;;17.80;10.82;;;;;;;;;;5055084;28;20044;-81
2023/04/21 07:52:08;;;;;;;17.92;10.13;;;;;;;;;;5054535;28;20033;-81
2023/04/21 07:54:34;;;;;;;17.17;10.70;;;;;;;;;;5053842;28;20128;-80
2023/04/21 07:57:01;;;;;;;16.90;10.25;;;;;;;;;;5053643;28;20075;-81
2023/04/21 07:59:27;;;;;;;16.48;10.65;;;;;;;;;;5054615;28;20045;-80
2023/04/21 08:01:54;;;;;;;16.33;9.00;;;;;;;;;;5053491;28;20045;-81
2023/04/21 08:04:20;;;;;;;20.95;11.00;;;;;;;;;;5053416;28;20045;-81
2023/04/21 08:06:46;;;;;;;16.90;10.75;;;;;;;;;;5054688;28;20489;-81
2023/04/21 08:09:12;;;;;;;14.73;10.10;;;;;;;;;;5054401;28;20041;-81
2023/04/21 08:11:38;;;;;;;17.92;9.77;;;;;;;;;;5053990;28;20044;-81
2023/04/21 08:14:04;;;;;;;16.83;10.68;;;;;;;;;;5053297;28;20068;-81
2023/04/21 08:16:30;;;;;;;16.48;10.32;;;;;;;;;;5036521;28;20095;-81
2023/04/21 08:18:57;;;;;;;15.13;9.98;;;;;;;;;;5054602;28;20041;-81
2023/04/21 08:21:23;;;;;;;17.00;9.63;;;;;;;;;;5036244;28;20037;-81
2023/04/21 08:23:49;;;;;;;15.18;8.40;;;;;;;;;;5053251;28;20498;-81
2023/04/21 08:26:17;;;;;;;16.63;9.30;;;;;;;;;;5054183;28;20048;-81
2023/04/21 08:28:43;;;;;;;17.13;10.27;;;;;;;;;;5070387;28;20041;-81
2023/04/21 08:31:09;;;;;;;20.52;10.38;;;;;;;;;;5052611;28;20091;-81
2023/04/21 08:33:36;;;;;;;16.45;9.65;;;;;;;;;;5054465;28;20094;-81
2023/04/21 08:36:03;;;;;;;22.60;10.07;;;;;;;;;;5053158;28;20063;-81
2023/04/21 08:38:29;;;;;;;16.90;10.57;;;;;;;;;;5052591;28;20040;-81
2023/04/21 08:40:56;;;;;;;15.43;9.18;;;;;;;;;;5052954;28;20095;-82
2023/04/21 08:43:22;;;;;;;17.58;10.20;;;;;;;;;;5035706;28;20033;-82
2023/04/21 08:45:48;;;;;;;15.18;9.27;;;;;;;;;;5053022;28;20045;-82
2023/04/21 08:48:18;;;;;;;13.68;8.73;;;;;;;;;;5052411;28;20041;-82
2023/04/21 08:50:46;;;;;;;16.13;9.57;;;;;;;;;;5035375;28;20093;-82
2023/04/21 08:53:12;;;;;;;15.70;10.18;;;;;;;;;;5052594;28;20482;-82
2023/04/21 08:55:38;;;;;;;14.43;8.52;;;;;;;;;;5054011;28;20524;-82
2023/04/21 08:58:05;;;;;;;14.38;8.93;;;;;;;;;;5054130;28;20513;-82
2023/04/21 09:00:31;;;;;;;14.93;10.18;;;;;;;;;;5051361;28;20051;-82
2023/04/21 09:02:59;;;;;;;15.35;9.43;;;;;;;;;;5044520;28;20397;-82
2023/04/21 09:05:36;;;;;;;11.45;8.35;;;;;;;;;;5053082;28;20505;-82
2023/04/21 09:08:08;;;;;;;16.17;9.35;;;;;;;;;;5052810;28;20370;-82
2023/04/21 09:10:41;;;;;;;23.80;9.50;;;;;;;;;;5052074;28;20045;-82
2023/04/21 09:13:08;;;;;;;17.65;9.68;;;;;;;;;;5053574;28;20119;-82
2023/04/21 09:16:00;;;;;;;14.70;8.77;;;;;;;;;;5052071;28;20708;-82
2023/04/21 09:18:27;;;;;;;14.75;8.68;;;;;;;;;;5084613;28;20138;-81
2023/04/21 09:21:17;;;;;;;18.17;9.80;;;;;;;;;;5052321;28;20119;-82
2023/04/21 09:23:43;;;;;;;15.85;8.95;;;;;;;;;;5065771;28;20149;-82
2023/04/21 09:26:09;;;;;;;16.35;10.18;;;;;;;;;;5052149;28;20400;-82
2023/04/21 09:28:36;;;;;;;16.75;9.02;;;;;;;;;;5051759;28;20115;-82
2023/04/21 09:31:02;;;;;;;15.90;9.07;;;;;;;;;;5053179;28;20029;-82
2023/04/21 09:33:28;;;;;;;18.00;9.70;;;;;;;;;;5051605;28;20086;-82
2023/04/21 09:35:54;;;;;;;15.40;9.20;;;;;;;;;;5052134;28;20402;-82
2023/04/21 09:38:21;;;;;;;18.17;9.48;;;;;;;;;;5051593;28;20505;-82
2023/04/21 09:40:57;;;;;;;14.15;8.93;;;;;;;;;;5052132;28;20064;-82
2023/04/21 09:43:24;;;;;;;16.48;10.05;;;;;;;;;;5052540;28;20079;-82
2023/04/21 09:45:50;;;;;;;13.50;8.63;;;;;;;;;;5053251;28;20068;-82
2023/04/21 09:48:17;;;;;;;13.82;8.35;;;;;;;;;;5051562;28;20049;-82
2023/04/21 09:50:43;;;;;;;19.00;10.07;;;;;;;;;;5052900;28;20070;-82
2023/04/21 09:53:14;;;;;;;14.48;10.73;;;;;;;;;;5051617;28;20524;-82
2023/04/21 09:55:41;;;;;;;18.05;10.70;;;;;;;;;;5051281;28;20139;-82
2023/04/21 09:58:09;;;;;;;17.33;10.82;;;;;;;;;;5052928;28;20041;-82
2023/04/21 10:00:38;;;;;;;16.75;10.07;;;;;;;;;;5050956;28;20047;-82
2023/04/21 10:03:04;;;;;;;17.05;9.93;;;;;;;;;;5044723;28;20048;-82
2023/04/21 10:05:31;;;;;;;16.88;10.02;;;;;;;;;;5050824;28;20041;-82
2023/04/21 10:07:57;;;;;;;15.50;10.20;;;;;;;;;;5051592;28;20463;-82
2023/04/21 10:10:26;;;;;;;18.38;9.95;;;;;;;;;;5050895;28;20072;-82
2023/04/21 10:12:52;;;;;;;16.42;10.23;;;;;;;;;;5051217;28;20489;-82
2023/04/21 10:15:38;;;;;;;15.75;9.90;;;;;;;;;;5051342;28;20099;-82
2023/04/21 10:18:18;;;;;;;18.63;11.32;;;;;;;;;;5084427;28;20048;-82
2023/04/21 10:21:20;;;;;;;18.45;11.35;;;;;;;;;;5050840;28;20041;-82
2023/04/21 10:23:46;;;;;;;14.88;10.48;;;;;;;;;;5019215;28;20045;-82
2023/04/21 10:26:21;;;;;;;16.52;10.65;;;;;;;;;;5051068;28;20052;-82
2023/04/21 10:28:48;;;;;;;12.40;8.00;;;;;;;;;;5051004;28;20123;-82
2023/04/21 10:31:31;;;;;;;18.45;9.93;;;;;;;;;;5051225;28;20052;-82
2023/04/21 10:34:12;;;;;;;20.60;11.48;;;;;;;;;;5051281;28;20045;-82
2023/04/21 10:36:53;;;;;;;18.98;12.05;;;;;;;;;;5034032;28;20089;-82
2023/04/21 10:39:26;;;;;;;17.10;9.95;;;;;;;;;;5051155;28;20187;-81
2023/04/21 10:41:56;;;;;;;21.80;11.27;;;;;;;;;;5052083;28;20037;-82
2023/04/21 10:44:23;;;;;;;19.50;12.10;;;;;;;;;;5050932;28;20417;-82
2023/04/21 10:46:53;;;;;;;18.98;11.38;;;;;;;;;;5050689;28;20596;-81
2023/04/21 10:49:22;;;;;;;20.42;12.02;;;;;;;;;;5051212;28;20490;-82
2023/04/21 10:51:58;;;;;;;20.33;11.93;;;;;;;;;;5033701;28;20036;-82
2023/04/21 10:54:27;;;;;;;;;;;;;;;;;;5051240;28;20056;-82
2023/04/21 10:56:54;;;;;;;23.05;12.40;;;;;;;;;;5050504;28;19921;-82
2023/04/21 10:59:21;;;;;;;17.98;11.90;;;;;;;;;;5050785;28;20044;-82
2023/04/21 11:01:47;;;;;;;20.60;11.48;;;;;;;;;;5041736;28;20115;-82
2023/04/21 11:04:16;;;;;;;17.33;12.20;;;;;;;;;;5050621;28;20045;-82
2023/04/21 11:06:42;;;;;;;18.73;11.15;;;;;;;;;;5051534;28;20072;-82
2023/04/21 11:09:08;;;;;;;18.65;11.00;;;;;;;;;;5052600;28;20033;-82
2023/04/21 11:11:35;;;;;;;16.75;10.95;;;;;;;;;;5051524;28;20567;-82
2023/04/21 11:14:02;;;;;;;18.58;11.65;;;;;;;;;;5053720;28;20120;-82
2023/04/21 11:16:28;;;;;;;18.67;11.77;;;;;;;;;;5054714;28;20125;-82
2023/04/21 11:18:56;;;;;;;21.30;12.38;;;;;;;;;;5038200;28;20143;-82
2023/04/21 11:21:23;;;;;;;18.75;11.95;;;;;;;;;;5054428;28;20047;-82
2023/04/21 11:23:54;;;;;;;18.52;10.82;;;;;;;;;;5054142;28;20057;-82
2023/04/21 11:26:36;;;;;;;16.38;11.10;;;;;;;;;;5055779;28;20045;-82
2023/04/21 11:29:06;;;;;;;18.50;11.88;;;;;;;;;;5054313;28;20053;-82
2023/04/21 11:31:32;;;;;;;18.75;11.88;;;;;;;;;;5053944;28;20037;-82
2023/04/21 11:33:59;;;;;;;21.40;11.57;;;;;;;;;;5054269;28;20041;-82
2023/04/21 11:36:26;;;;;;;16.65;10.13;;;;;;;;;;5054303;28;20052;-82
2023/04/21 11:38:52;;;;;;;17.92;12.15;;;;;;;;;;5037334;28;20040;-82
2023/04/21 11:41:22;;;;;;;19.52;11.95;;;;;;;;;;5087675;28;20095;-82
2023/04/21 11:43:49;;;;;;;17.25;11.38;;;;;;;;;;5053543;28;20414;-82
2023/04/21 11:46:24;;;;;;;17.67;11.27;;;;;;;;;;5054133;28;20090;-82
2023/04/21 11:49:01;;;;;;;19.70;11.45;;;;;;;;;;5053685;28;20115;-82
2023/04/21 11:51:31;;;;;;;17.77;11.18;;;;;;;;;;5053817;28;20033;-82
2023/04/21 11:53:58;;;;;;;16.45;11.15;;;;;;;;;;5037043;28;20037;-82
2023/04/21 11:56:24;;;;;;;18.83;11.38;;;;;;;;;;5053997;28;20457;-82
2023/04/21 11:58:54;;;;;;;20.55;11.25;;;;;;;;;;5053609;28;20444;-82
2023/04/21 12:01:21;;;;;;;15.95;11.38;;;;;;;;;;5046273;28;20053;-82
2023/04/21 12:03:54;;;;;;;17.30;9.88;;;;;;;;;;5051351;28;20041;-82
2023/04/21 12:06:20;;;;;;;21.35;11.73;;;;;;;;;;5055091;28;20389;-82
2023/04/21 12:08:46;;;;;;;19.80;11.52;;;;;;;;;;5054207;28;20032;-82
2023/04/21 12:11:15;;;;;;;19.20;10.63;;;;;;;;;;5054792;28;20091;-82
2023/04/21 12:13:41;;;;;;;17.83;10.52;;;;;;;;;;5054284;28;20041;-82
2023/04/21 12:16:07;;;;;;;21.77;11.15;;;;;;;;;;5053498;28;20120;-82
2023/04/21 12:18:35;;;;;;;16.08;11.25;;;;;;;;;;5054775;28;20041;-82
2023/04/21 12:21:02;;;;;;;15.23;10.95;;;;;;;;;;5053282;28;20413;-83
2023/04/21 12:23:28;;;;;;;18.90;12.18;;;;;;;;;;5053425;28;20500;-82
2023/04/21 12:25:54;;;;;;;17.25;12.80;;;;;;;;;;5051452;28;20067;-82
2023/04/21 12:28:20;;;;;;;16.77;12.05;;;;;;;;;;5053425;28;20037;-82
2023/04/21 12:30:46;;;;;;;18.05;11.75;;;;;;;;;;5052785;28;20041;-82
2023/04/21 12:33:12;;;;;;;19.25;11.95;;;;;;;;;;5053040;28;20049;-83
2023/04/21 12:35:38;;;;;;;20.85;13.10;;;;;;;;;;5053061;28;20044;-82
2023/04/21 12:38:05;;;;;;;19.08;13.05;;;;;;;;;;5053294;28;20045;-83
2023/04/21 12:40:32;;;;;;;18.17;13.50;;;;;;;;;;5053395;28;20055;-83
2023/04/21 12:42:58;;;;;;;25.88;13.80;;;;;;;;;;5053909;28;20067;-83
2023/04/21 12:45:24;;;;;;;17.33;12.88;;;;;;;;;;5036237;28;20041;-83
2023/04/21 12:47:50;;;;;;;23.02;13.35;;;;;;;;;;5052890;28;20394;-82
2023/04/21 12:50:16;;;;;;;20.02;13.45;;;;;;;;;;5052708;28;20069;-82
2023/04/21 12:52:42;;;;;;;19.50;13.02;;;;;;;;;;5053661;28;20736;-83
2023/04/21 12:55:08;;;;;;;20.13;14.20;;;;;;;;;;5053981;28;20505;-83
2023/04/21 12:57:34;;;;;;;18.25;13.88;;;;;;;;;;5054012;28;20044;-82
2023/04/21 13:00:00;;;;;;;19.00;13.27;;;;;;;;;;5053196;28;20087;-82
2023/04/21 13:02:27;;;;;;;22.33;14.07;;;;;;;;;;5043045;28;20167;-83
2023/04/21 13:04:53;;;;;;;19.05;13.95;;;;;;;;;;5035477;28;20045;-83
2023/04/21 13:07:21;;;;;;;20.23;13.77;;;;;;;;;;5053945;28;20052;-82
2023/04/21 13:09:47;;;;;;;20.35;14.43;;;;;;;;;;5052366;28;20426;-83
2023/04/21 13:12:13;;;;;;;21.75;14.38;;;;;;;;;;5052768;28;20390;-82
2023/04/21 13:14:39;;;;;;;19.40;14.15;;;;;;;;;;5053625;28;20596;-82
2023/04/21 13:17:05;;;;;;;20.73;14.23;;;;;;;;;;5053316;28;20051;-82
2023/04/21 13:19:31;;;;;;;18.45;13.95;;;;;;;;;;5052058;28;20045;-82
2023/04/21 13:21:57;;;;;;;20.63;14.30;;;;;;;;;;5052185;28;20119;-82
2023/04/21 13:24:25;;;;;;;20.63;14.32;;;;;;;;;;5051896;28;20418;-82
2023/04/21 13:26:51;;;;;;;19.60;13.75;;;;;;;;;;5053119;28;20041;-82
2023/04/21 13:29:18;;;;;;;21.17;14.05;;;;;;;;;;5035431;28;20041;-82
2023/04/21 13:31:44;;;;;;;25.38;14.73;;;;;;;;;;5051998;28;20037;-82
2023/04/21 13:34:10;;;;;;;22.52;14.25;;;;;;;;;;5053143;28;20489;-82
2023/04/21 13:36:36;;;;;;;22.77;14.35;;;;;;;;;;5051487;28;20048;-82
2023/04/21 13:39:03;;;;;;;20.30;13.90;;;;;;;;;;5051587;28;20049;-82
2023/04/21 13:41:29;;;;;;;20.13;13.95;;;;;;;;;;5053226;28;20152;-82
2023/04/21 13:43:55;;;;;;;16.75;12.73;;;;;;;;;;5052723;28;20094;-82
2023/04/21 13:46:21;;;;;;;18.83;13.52;;;;;;;;;;5052956;28;20045;-82
2023/04/21 13:48:49;;;;;;;18.08;12.60;;;;;;;;;;5052529;28;20112;-82
2023/04/21 13:51:15;;;;;;;18.90;12.75;;;;;;;;;;5035606;28;20505;-82
2023/04/21 13:53:41;;;;;;;22.02;13.23;;;;;;;;;;5053014;28;21731;-81
2023/04/21 13:56:09;;;;;;;18.17;12.90;;;;;;;;;;5051382;28;20076;-81
2023/04/21 13:58:35;;;;;;;21.80;13.35;;;;;;;;;;5051800;28;20043;-81
2023/04/21 14:01:02;;;;;;;20.17;13.02;;;;;;;;;;5046088;28;20041;-82
2023/04/21 14:03:28;;;;;;;18.45;12.52;;;;;;;;;;5046069;28;20410;-82
2023/04/21 14:05:55;;;;;;;17.92;12.65;;;;;;;;;;5050977;28;20470;-82
2023/04/21 14:08:21;;;;;;;19.20;12.15;;;;;;;;;;5052896;28;20048;-82
2023/04/21 14:10:47;;;;;;;19.65;12.80;;;;;;;;;;5052556;28;20029;-82
2023/04/21 14:13:14;;;;;;;21.50;12.63;;;;;;;;;;5034484;28;20090;-82
2023/04/21 14:15:40;;;;;;;16.77;9.98;;;;;;;;;;5051620;28;20478;-82
2023/04/21 14:18:06;;;;;;;16.17;9.35;;;;;;;;;;5067494;28;20049;-82